Rhodesdale, Maryland
Current Conditions -  °F | °C
As of 6:21 AM on Monday 22 Dec 2014 (Local Time) from KCGE Reporting Station
Broken Clouds Broken Clouds  
Wind Chill: 34°   Ceiling: 5500
Heat Index: 34°   Visibility: 10mi
Dew Point: 28°   Wind: 0mph
Humidity: 81%   Direction: NA
Pressure: 30.28"   Gusts: NA
Location:  38.58°N, 75.84°W
Report Text: KCGE 221121Z AUTO 00000KT 10SM BKN055 01/M02 A3028 RMK AO1
Loading
Personal Weather Stations






























Interactive Weather Map New forecast layout! Learn more

10-Day Weather Forecast

Advertisements
Track Severe Weather on mobile